createdAt,value
2018-11-10T00:00:37.465Z,82.20
2018-11-10T00:03:10.042Z,80.46
2018-11-10T00:05:40.981Z,78.60
2018-11-10T00:08:14.505Z,77.37
2018-11-10T00:10:45.829Z,75.53
2018-11-10T00:13:18.920Z,75.13
2018-11-10T00:15:50.882Z,74.44
2018-11-10T00:18:21.828Z,74.28
2018-11-10T00:20:53.988Z,73.65
2018-11-10T00:23:24.283Z,72.41
2018-11-10T00:25:55.561Z,72.71
2018-11-10T00:28:26.296Z,73.08
2018-11-10T00:30:57.337Z,72.42
2018-11-10T00:33:29.914Z,72.77
2018-11-10T00:36:00.853Z,73.17
2018-11-10T00:38:31.486Z,73.04
2018-11-10T00:41:03.858Z,73.14
2018-11-10T00:43:34.353Z,73.01
2018-11-10T00:46:06.863Z,72.23
2018-11-10T00:48:37.497Z,72.19
2018-11-10T00:51:09.454Z,71.79
2018-11-10T00:53:40.602Z,71.14
2018-11-10T00:56:11.337Z,71.86
2018-11-10T00:58:43.513Z,72.07
2018-11-10T01:01:14.779Z,71.44
2018-11-10T01:03:48.533Z,72.21
2018-11-10T01:06:20.832Z,71.79
2018-11-10T01:08:56.577Z,71.81
2018-11-10T01:11:27.522Z,71.75
2018-11-10T01:13:59.673Z,72.27
2018-11-10T01:16:38.409Z,72.57
2018-11-10T01:19:10.886Z,72.94
2018-11-10T01:21:43.053Z,72.57
2018-11-10T01:24:16.757Z,72.48
2018-11-10T01:26:50.976Z,72.14
2018-11-10T01:29:22.073Z,72.94
2018-11-10T01:31:54.486Z,73.35
2018-11-10T01:34:25.046Z,73.69
2018-11-10T01:36:55.652Z,73.76
2018-11-10T01:39:27.208Z,74.15
2018-11-10T01:41:58.468Z,73.59
2018-11-10T01:44:29.083Z,74.05
2018-11-10T01:47:01.247Z,74.17
2018-11-10T01:49:33.112Z,74.25
2018-11-10T01:52:05.467Z,74.64
2018-11-10T01:54:36.529Z,74.87
2018-11-10T01:57:07.568Z,74.95
2018-11-10T01:59:39.225Z,75.18
2018-11-10T02:02:10.164Z,74.81
2018-11-10T02:04:41.061Z,74.97
2018-11-10T02:07:12.553Z,75.00
2018-11-10T02:09:44.594Z,75.54
2018-11-10T02:12:19.655Z,76.17
2018-11-10T02:14:51.413Z,75.71
2018-11-10T02:17:22.150Z,76.02
2018-11-10T02:19:53.598Z,76.02
2018-11-10T02:22:25.464Z,75.89
2018-11-10T02:24:59.886Z,75.87
2018-11-10T02:27:32.766Z,75.87
2018-11-10T02:30:03.206Z,75.98
2018-11-10T02:32:34.031Z,76.28
2018-11-10T02:35:06.142Z,76.14
2018-11-10T02:37:38.525Z,75.79
2018-11-10T02:40:12.583Z,74.99
2018-11-10T02:42:44.818Z,75.55
2018-11-10T02:45:17.019Z,75.75
2018-11-10T02:47:47.551Z,75.41
2018-11-10T02:50:19.105Z,75.85
2018-11-10T02:52:50.265Z,76.17
2018-11-10T02:55:21.398Z,76.63
2018-11-10T02:57:54.583Z,76.46
2018-11-10T03:00:26.057Z,76.67
2018-11-10T03:02:56.251Z,76.29
2018-11-10T03:05:26.888Z,75.87
2018-11-10T03:07:59.359Z,75.89
2018-11-10T03:10:29.706Z,75.60
2018-11-10T03:13:00.832Z,75.40
2018-11-10T03:15:31.301Z,75.50
2018-11-10T03:18:02.302Z,75.55
2018-11-10T03:20:32.725Z,76.20
2018-11-10T03:23:11.347Z,76.04
2018-11-10T03:25:46.997Z,76.37
2018-11-10T03:28:17.837Z,76.88
2018-11-10T03:30:47.749Z,77.00
2018-11-10T03:33:18.930Z,76.63
2018-11-10T03:35:51.047Z,77.13
2018-11-10T03:38:23.539Z,77.24
2018-11-10T03:40:54.065Z,77.22
2018-11-10T03:43:25.107Z,77.17
2018-11-10T03:45:56.660Z,76.60
2018-11-10T03:48:28.488Z,76.59
2018-11-10T03:50:59.049Z,76.35
2018-11-10T03:53:30.946Z,76.00
2018-11-10T03:56:01.511Z,76.69
2018-11-10T03:58:32.688Z,76.54
2018-11-10T04:01:10.692Z,75.63
2018-11-10T04:03:43.169Z,76.41
2018-11-10T04:06:15.029Z,75.41
2018-11-10T04:08:46.579Z,75.87
2018-11-10T04:11:18.339Z,76.23
2018-11-10T04:13:50.100Z,76.30
2018-11-10T04:16:22.166Z,76.27
2018-11-10T04:18:53.718Z,76.25
2018-11-10T04:21:25.374Z,76.12
2018-11-10T04:23:56.514Z,76.68
2018-11-10T04:26:28.789Z,75.95
2018-11-10T04:28:59.523Z,75.67
2018-11-10T04:31:31.486Z,74.88
2018-11-10T04:34:02.323Z,75.04
2018-11-10T04:36:33.672Z,75.23
2018-11-10T04:39:04.407Z,75.41
2018-11-10T04:41:35.853Z,75.39
2018-11-10T04:44:07.411Z,75.66
2018-11-10T04:46:38.760Z,75.40
2018-11-10T04:49:11.030Z,75.38
2018-11-10T04:51:44.018Z,75.33
2018-11-10T04:54:14.957Z,75.94
2018-11-10T04:56:46.715Z,75.79
2018-11-10T04:59:20.108Z,75.71
2018-11-10T05:01:54.550Z,76.20
2018-11-10T05:04:24.863Z,76.64
2018-11-10T05:06:57.253Z,76.12
2018-11-10T05:09:29.091Z,75.94
2018-11-10T05:12:00.440Z,75.45
2018-11-10T05:14:31.993Z,75.65
2018-11-10T05:17:02.627Z,76.69
2018-11-10T05:19:34.691Z,77.05
2018-11-10T05:22:05.733Z,77.66
2018-11-10T05:24:36.467Z,78.70
2018-11-10T05:27:07.508Z,79.48
2018-11-10T05:29:39.268Z,79.58
2018-11-10T05:32:11.745Z,80.43
2018-11-10T05:34:42.784Z,81.39
2018-11-10T05:37:14.031Z,81.88
2018-11-10T05:39:44.658Z,83.10
2018-11-10T05:42:15.393Z,82.96
2018-11-10T05:44:46.330Z,83.46
2018-11-10T05:47:17.891Z,83.37
2018-11-10T05:49:53.744Z,83.24
2018-11-10T05:52:27.243Z,83.36
2018-11-10T05:54:59.204Z,82.43
2018-11-10T05:57:30.044Z,82.86
2018-11-10T06:00:02.009Z,82.69
2018-11-10T06:02:32.740Z,83.16
2018-11-10T06:05:03.368Z,81.23
2018-11-10T06:07:34.757Z,82.56
2018-11-10T06:10:05.825Z,82.80
2018-11-10T06:12:36.596Z,82.10
2018-11-10T06:15:10.423Z,81.12
2018-11-10T06:17:41.239Z,81.96
2018-11-10T06:20:13.516Z,81.30
2018-11-10T06:22:44.555Z,81.13
2018-11-10T06:25:15.894Z,81.61
2018-11-10T06:27:47.454Z,81.57
2018-11-10T06:30:22.273Z,81.10
2018-11-10T06:32:58.454Z,80.93
2018-11-10T06:35:36.967Z,80.19
2018-11-10T06:38:13.133Z,80.03
2018-11-10T06:40:48.368Z,80.64
2018-11-10T06:43:24.731Z,80.31
2018-11-10T06:45:57.620Z,80.46
2018-11-10T06:48:30.510Z,80.70
2018-11-10T06:51:05.437Z,79.56
2018-11-10T06:53:42.008Z,78.96
2018-11-10T06:56:13.251Z,79.84
2018-11-10T06:58:45.423Z,78.79
2018-11-10T07:01:17.283Z,79.68
2018-11-10T07:03:49.348Z,80.19
2018-11-10T07:06:22.946Z,81.81
2018-11-10T07:08:56.653Z,81.44
2018-11-10T07:11:29.538Z,82.40
2018-11-10T07:14:01.799Z,81.83
2018-11-10T07:16:35.411Z,82.19
2018-11-10T07:19:07.883Z,81.18
2018-11-10T07:21:40.243Z,80.66
2018-11-10T07:24:11.603Z,80.11
2018-11-10T07:26:43.559Z,80.71
2018-11-10T07:29:21.117Z,79.85
2018-11-10T07:31:58.151Z,80.15
2018-11-10T07:34:33.381Z,79.42
2018-11-10T07:37:15.105Z,79.81
2018-11-10T07:39:50.725Z,80.22
2018-11-10T07:42:24.941Z,79.44
2018-11-10T07:44:59.722Z,79.94
2018-11-10T07:47:37.060Z,80.11
2018-11-10T07:50:27.753Z,79.74
2018-11-10T07:53:00.743Z,79.97
2018-11-10T07:55:33.319Z,80.28
2018-11-10T07:58:08.464Z,79.51
2018-11-10T08:00:41.240Z,80.37
2018-11-10T08:03:13.415Z,81.53
2018-11-10T08:05:45.165Z,80.09
2018-11-10T08:08:21.324Z,81.18
2018-11-10T08:10:53.204Z,80.27
2018-11-10T08:13:28.231Z,80.83
2018-11-10T08:16:03.368Z,79.37
2018-11-10T08:18:37.569Z,79.83
2018-11-10T08:21:12.609Z,79.09
2018-11-10T08:23:46.312Z,78.60
2018-11-10T08:26:18.377Z,78.31
2018-11-10T08:28:51.582Z,78.50
2018-11-10T08:31:28.971Z,76.66
2018-11-10T08:34:01.843Z,76.59
2018-11-10T08:36:33.500Z,75.59
2018-11-10T08:39:06.137Z,74.55
2018-11-10T08:41:45.311Z,75.71
2018-11-10T08:44:19.540Z,75.82
2018-11-10T08:46:57.749Z,75.20
2018-11-10T08:49:32.770Z,72.92
2018-11-10T08:52:07.193Z,73.99
2018-11-10T08:54:42.957Z,73.35
2018-11-10T08:57:18.086Z,73.43
2018-11-10T09:02:41.460Z,73.07
2018-11-10T09:05:15.693Z,70.57
2018-11-10T09:07:47.746Z,71.56
2018-11-10T09:10:23.085Z,71.15
2018-11-10T09:12:56.178Z,70.42
2018-11-10T09:15:30.002Z,67.05
2018-11-10T09:18:03.089Z,70.87
2018-11-10T09:20:38.225Z,71.99
2018-11-10T09:23:12.831Z,72.54
2018-11-10T09:25:45.020Z,72.58
2018-11-10T09:28:20.672Z,72.10
2018-11-10T09:31:09.607Z,71.70
2018-11-10T09:33:43.422Z,72.03
2018-11-10T09:36:17.231Z,70.36
2018-11-10T09:38:56.410Z,70.59
2018-11-10T09:41:31.487Z,71.57
2018-11-10T09:44:05.945Z,71.68
2018-11-10T09:46:46.190Z,70.34
2018-11-10T09:49:25.599Z,71.37
2018-11-10T09:52:06.706Z,70.34
2018-11-10T09:54:45.836Z,70.91
2018-11-10T09:57:29.168Z,70.40
2018-11-10T10:00:04.916Z,70.60
2018-11-10T10:02:42.379Z,71.09
2018-11-10T10:05:24.894Z,70.61
2018-11-10T10:08:00.469Z,70.79
2018-11-10T10:13:37.779Z,70.74
2018-11-10T10:16:20.081Z,70.39
2018-11-10T10:19:04.548Z,70.66
2018-11-10T10:21:42.444Z,70.37
2018-11-10T10:24:26.694Z,69.77
2018-11-10T10:27:21.169Z,68.79
2018-11-10T10:46:39.956Z,68.29
2018-11-10T10:49:22.267Z,70.21
2018-11-10T10:51:56.889Z,70.18
2018-11-10T10:54:35.096Z,68.73
2018-11-10T10:57:08.357Z,68.49
2018-11-10T10:59:52.645Z,69.63
2018-11-10T11:02:32.691Z,69.32
2018-11-10T11:05:18.179Z,68.90
2018-11-10T11:07:55.263Z,67.90
2018-11-10T11:13:10.449Z,68.92
2018-11-10T11:15:54.242Z,68.19
2018-11-10T11:18:32.605Z,68.40
2018-11-10T11:21:12.931Z,67.05
2018-11-10T11:24:01.069Z,67.31
2018-11-10T11:26:35.774Z,68.32
2018-11-10T11:29:23.512Z,67.39
2018-11-10T11:31:58.607Z,66.33
2018-11-10T11:34:35.566Z,67.08
2018-11-10T11:37:12.339Z,66.92
2018-11-10T11:39:50.979Z,66.64
2018-11-10T11:45:09.963Z,66.21
2018-11-10T11:47:44.758Z,66.97
2018-11-10T11:50:20.033Z,67.06
2018-11-10T11:52:57.218Z,66.71
2018-11-10T11:55:36.501Z,65.23
2018-11-10T11:58:14.066Z,66.54
2018-11-10T12:00:56.216Z,66.83
2018-11-10T12:03:30.338Z,65.25
2018-11-10T12:09:07.264Z,65.17
2018-11-10T12:11:47.533Z,64.43
2018-11-10T12:14:23.065Z,65.20
2018-11-10T12:17:06.082Z,64.94
2018-11-10T12:19:44.037Z,65.42
2018-11-10T12:22:21.286Z,64.87
2018-11-10T12:24:54.723Z,63.08
2018-11-10T12:27:34.245Z,65.78
2018-11-10T12:33:05.281Z,65.89
2018-11-10T12:35:46.229Z,65.37
2018-11-10T12:38:19.210Z,66.18
2018-11-10T12:40:56.220Z,66.15
2018-11-10T12:43:31.052Z,65.25
2018-11-10T12:46:11.721Z,65.23
2018-11-10T12:51:44.334Z,65.83
2018-11-10T12:54:20.864Z,66.74
2018-11-10T12:56:57.873Z,67.76
2018-11-10T12:59:35.406Z,67.83
2018-11-10T13:02:13.986Z,68.10
2018-11-10T13:04:50.858Z,71.27
2018-11-10T13:07:43.550Z,73.73
2018-11-10T13:10:27.697Z,75.79
2018-11-10T13:13:09.344Z,78.43
2018-11-10T13:15:59.031Z,79.38
2018-11-10T13:18:37.753Z,81.13
2018-11-10T13:21:25.167Z,82.67
2018-11-10T13:24:13.747Z,83.65
2018-11-10T13:26:59.723Z,84.87
2018-11-10T13:29:39.570Z,83.22
2018-11-10T13:35:43.088Z,76.62
2018-11-10T13:44:30.074Z,77.96
2018-11-10T13:47:16.042Z,77.46
2018-11-10T13:49:55.512Z,75.17
2018-11-10T13:52:39.706Z,77.20
2018-11-10T13:55:26.643Z,76.71
2018-11-10T13:58:12.052Z,76.48
2018-11-10T14:00:48.202Z,76.69
2018-11-10T14:03:24.267Z,76.21
2018-11-10T14:06:20.708Z,72.90
2018-11-10T14:09:01.274Z,72.67
2018-11-10T14:11:43.725Z,73.08
2018-11-10T14:14:25.243Z,71.69
2018-11-10T14:17:10.749Z,72.55
2018-11-10T14:19:50.668Z,73.74
2018-11-10T14:22:32.244Z,73.45
2018-11-10T14:25:09.680Z,71.95
2018-11-10T14:27:48.272Z,73.64
2018-11-10T14:30:25.453Z,71.16
2018-11-10T14:33:09.401Z,71.04
2018-11-10T14:35:49.756Z,70.75
2018-11-10T14:38:28.972Z,71.85
2018-11-10T14:43:49.301Z,73.20
2018-11-10T14:46:23.523Z,74.16
2018-11-10T14:48:59.704Z,74.96
2018-11-10T14:51:34.109Z,75.43
2018-11-10T14:54:13.203Z,70.66
2018-11-10T15:00:31.299Z,74.28
2018-11-10T15:03:07.070Z,77.63
2018-11-10T15:05:43.698Z,68.54
2018-11-10T15:08:20.499Z,72.03
2018-11-10T15:11:06.703Z,79.27
2018-11-10T15:13:44.302Z,77.01
2018-11-10T15:16:33.256Z,73.91
2018-11-10T15:24:48.265Z,76.22
2018-11-10T15:27:22.680Z,76.06
2018-11-10T15:29:59.768Z,74.85
2018-11-10T15:32:35.827Z,69.85
2018-11-10T15:35:20.499Z,70.64
2018-11-10T15:37:57.669Z,71.48
2018-11-10T15:40:40.900Z,69.04
2018-11-10T15:43:21.806Z,69.44
2018-11-10T15:46:00.051Z,69.08
2018-11-10T15:48:45.362Z,68.63
2018-11-10T15:51:19.168Z,69.45
2018-11-10T15:53:54.577Z,68.66
2018-11-10T15:56:31.760Z,68.47
2018-11-10T15:59:09.694Z,67.68
2018-11-10T16:01:40.537Z,68.04
2018-11-10T16:04:19.233Z,69.61
2018-11-10T16:06:55.010Z,67.85
2018-11-10T16:09:41.306Z,68.09
2018-11-10T16:12:25.127Z,71.35
2018-11-10T16:15:02.333Z,72.12
2018-11-10T16:17:41.981Z,73.18
2018-11-10T16:20:17.830Z,71.78
2018-11-10T16:22:59.317Z,70.65
2018-11-10T16:25:35.994Z,69.88
2018-11-10T16:28:21.012Z,67.45
2018-11-10T16:30:55.892Z,67.89
2018-11-10T16:33:33.999Z,69.38
2018-11-10T16:36:16.925Z,69.45
2018-11-10T16:39:07.212Z,69.59
2018-11-10T16:41:44.401Z,69.96
2018-11-10T16:44:22.714Z,71.80
2018-11-10T16:47:06.859Z,74.18
2018-11-10T16:52:36.999Z,73.72
2018-11-10T16:55:15.610Z,74.05
2018-11-10T16:57:50.142Z,75.84
2018-11-10T17:00:27.430Z,75.70
2018-11-10T17:03:02.635Z,75.78
2018-11-10T17:05:40.959Z,75.65
2018-11-10T17:08:22.984Z,76.67
2018-11-10T17:11:03.336Z,76.79
2018-11-10T17:13:38.559Z,77.70
2018-11-10T17:16:32.252Z,76.52
2018-11-10T17:19:14.145Z,76.89
2018-11-10T17:21:52.167Z,77.97
2018-11-10T17:24:36.095Z,73.46
2018-11-10T17:27:08.313Z,74.43
2018-11-10T17:29:42.789Z,72.50
2018-11-10T17:32:18.505Z,71.46
2018-11-10T17:34:55.011Z,74.11
2018-11-10T17:37:34.870Z,73.85
2018-11-10T17:40:15.654Z,74.89
2018-11-10T17:42:50.966Z,73.84
2018-11-10T17:45:29.686Z,71.17
2018-11-10T17:48:11.145Z,70.52
2018-11-10T17:50:49.453Z,68.59
2018-11-10T17:53:22.990Z,68.63
2018-11-10T17:56:00.479Z,69.15
2018-11-10T17:58:38.688Z,67.23
2018-11-10T18:01:17.318Z,67.58
2018-11-10T18:03:58.474Z,67.68
2018-11-10T18:06:33.829Z,67.90
2018-11-10T18:09:14.802Z,67.63
2018-11-10T18:11:51.401Z,66.88
2018-11-10T18:14:36.310Z,67.13
2018-11-10T18:17:15.781Z,66.02
2018-11-10T18:19:52.966Z,65.53
2018-11-10T18:22:32.815Z,65.55
2018-11-10T18:25:11.760Z,65.68
2018-11-10T18:27:43.303Z,64.94
2018-11-10T18:30:20.549Z,66.06
2018-11-10T18:32:55.709Z,64.26
2018-11-10T18:35:35.578Z,64.19
2018-11-10T18:38:20.029Z,64.24
2018-11-10T18:41:01.070Z,63.75
2018-11-10T18:43:40.917Z,63.46
2018-11-10T18:46:22.333Z,65.18
2018-11-10T18:49:01.165Z,62.12
2018-11-10T18:51:34.864Z,64.52
2018-11-10T18:54:10.204Z,63.45
2018-11-10T18:56:46.530Z,63.75
2018-11-10T18:59:19.155Z,62.52
2018-11-10T19:01:53.672Z,62.72
2018-11-10T19:04:27.702Z,61.44
2018-11-10T19:06:58.830Z,63.34
2018-11-10T19:09:32.411Z,62.92
2018-11-10T19:12:03.188Z,66.07
2018-11-10T19:14:34.391Z,68.48
2018-11-10T19:17:11.353Z,70.78
2018-11-10T19:19:44.179Z,69.42
2018-11-10T19:22:16.954Z,69.40
2018-11-10T19:24:48.917Z,68.04
2018-11-10T19:27:22.892Z,71.49
2018-11-10T19:29:56.407Z,72.90
2018-11-10T19:32:28.401Z,73.86
2018-11-10T19:35:00.866Z,75.48
2018-11-10T19:37:34.446Z,77.83
2018-11-10T19:40:10.207Z,76.70
2018-11-10T19:42:45.562Z,81.05
2018-11-10T19:45:22.850Z,79.08
2018-11-10T19:47:54.200Z,79.38
2018-11-10T19:50:27.606Z,82.99
2018-11-10T19:53:03.430Z,85.93
2018-11-10T19:55:34.673Z,86.14
2018-11-10T19:58:08.393Z,85.67
2018-11-10T20:00:39.948Z,86.31
2018-11-10T20:03:13.035Z,87.50
2018-11-10T20:05:46.032Z,87.81
2018-11-10T20:08:17.174Z,89.07
2018-11-10T20:10:50.160Z,88.96
2018-11-10T20:13:27.545Z,87.62
2018-11-10T20:15:58.588Z,89.99
2018-11-10T20:18:30.249Z,87.56
2018-11-10T20:21:03.556Z,87.17
2018-11-10T20:23:40.013Z,88.28
2018-11-10T20:26:12.654Z,88.21
2018-11-10T20:28:47.519Z,87.41
2018-11-10T20:31:26.142Z,88.09
2018-11-10T20:34:00.255Z,87.87
2018-11-10T20:39:12.793Z,88.50
2018-11-10T20:41:43.315Z,88.73
2018-11-10T20:44:16.095Z,89.67
2018-11-10T20:46:46.631Z,88.90
2018-11-10T20:49:21.417Z,90.18
2018-11-10T20:52:02.544Z,89.74
2018-11-10T20:54:38.204Z,89.93
2018-11-10T20:57:13.793Z,89.37
2018-11-10T20:59:49.624Z,90.21
2018-11-10T21:02:21.764Z,90.29
2018-11-10T21:04:58.495Z,89.92
2018-11-10T21:07:33.673Z,89.22
2018-11-10T21:10:09.212Z,89.97
2018-11-10T21:12:45.004Z,88.33
2018-11-10T21:15:20.712Z,89.50
2018-11-10T21:17:51.770Z,89.07
2018-11-10T21:20:24.335Z,89.47
2018-11-10T21:22:59.489Z,88.84
2018-11-10T21:25:40.345Z,88.51
2018-11-10T21:28:12.590Z,89.35
2018-11-10T21:30:47.137Z,87.71
2018-11-10T21:33:19.234Z,87.53
2018-11-10T21:35:50.513Z,87.76
2018-11-10T21:38:23.176Z,88.22
2018-11-10T21:41:08.261Z,87.75
2018-11-10T21:43:39.939Z,84.60
2018-11-10T21:46:18.642Z,84.53
2018-11-10T21:48:50.759Z,86.79
2018-11-10T21:51:24.451Z,86.02
2018-11-10T21:53:57.500Z,86.98
2018-11-10T21:56:34.581Z,86.00
2018-11-10T21:59:07.573Z,83.45
2018-11-10T22:01:39.881Z,83.16
2018-11-10T22:04:14.783Z,84.33
2018-11-10T22:06:51.911Z,79.92
2018-11-10T22:09:30.943Z,77.79
2018-11-10T22:12:06.536Z,76.34
2018-11-10T22:14:42.950Z,80.81
2018-11-10T22:17:20.040Z,76.99
2018-11-10T22:19:56.351Z,80.33
2018-11-10T22:22:36.067Z,81.64
2018-11-10T22:25:13.205Z,77.85
2018-11-10T22:27:47.658Z,77.64
2018-11-10T22:30:21.756Z,75.82
2018-11-10T22:32:57.579Z,74.34
2018-11-10T22:35:31.571Z,76.13
2018-11-10T22:40:47.067Z,79.70
2018-11-10T22:43:22.148Z,75.58
2018-11-10T22:46:01.763Z,78.71
2018-11-10T22:48:38.377Z,76.78
2018-11-10T22:51:12.430Z,76.57
2018-11-10T22:53:49.812Z,77.68
2018-11-10T22:56:31.679Z,73.19
2018-11-10T22:59:15.997Z,77.26
2018-11-10T23:01:54.652Z,78.18
2018-11-10T23:04:29.066Z,80.14
2018-11-10T23:07:04.722Z,76.14
2018-11-10T23:09:39.241Z,77.49
2018-11-10T23:12:12.028Z,79.84
2018-11-10T23:14:47.370Z,79.25
2018-11-10T23:17:24.140Z,80.26
2018-11-10T23:19:57.134Z,81.36
2018-11-10T23:22:29.726Z,83.21
2018-11-10T23:25:02.828Z,86.07
2018-11-10T23:27:33.326Z,88.54
2018-11-10T23:30:08.089Z,88.09
2018-11-10T23:32:42.577Z,89.63
2018-11-10T23:35:18.129Z,90.22
2018-11-10T23:37:49.579Z,89.76
2018-11-10T23:40:20.767Z,89.73
2018-11-10T23:42:52.589Z,91.45
2018-11-10T23:45:23.627Z,92.08
2018-11-10T23:47:56.721Z,93.48
2018-11-10T23:50:30.917Z,92.85
2018-11-10T23:53:05.147Z,92.23
2018-11-10T23:55:40.285Z,92.24
2018-11-10T23:58:20.339Z,92.45
